Map

Track Data

SID SEASON NUMBER BASIN SUBBASIN NAME ISO_TIME NATURE LAT LON WMO_WIND WMO_PRES WMO_AGENCY TRACK_TYPE DIST2LAND LANDFALL IFLAG USA_AGENCY USA_ATCF_ID USA_LAT USA_LON USA_RECORD USA_STATUS USA_WIND USA_PRES USA_SSHS USA_R34_NE USA_R34_SE USA_R34_SW USA_R34_NW USA_R50_NE USA_R50_SE USA_R50_SW USA_R50_NW USA_R64_NE USA_R64_SE USA_R64_SW USA_R64_NW USA_POCI USA_ROCI USA_RMW USA_EYE TOKYO_LAT TOKYO_LON TOKYO_GRADE TOKYO_WIND TOKYO_PRES TOKYO_R50_DIR TOKYO_R50_LONG TOKYO_R50_SHORT TOKYO_R30_DIR TOKYO_R30_LONG TOKYO_R30_SHORT TOKYO_LAND CMA_LAT CMA_LON CMA_CAT CMA_WIND CMA_PRES HKO_LAT HKO_LON HKO_CAT HKO_WIND HKO_PRES NEWDELHI_LAT NEWDELHI_LON NEWDELHI_GRADE NEWDELHI_WIND NEWDELHI_PRES NEWDELHI_CI NEWDELHI_DP NEWDELHI_POCI REUNION_LAT REUNION_LON REUNION_TYPE REUNION_WIND REUNION_PRES REUNION_TNUM REUNION_CI REUNION_RMW REUNION_R34_NE REUNION_R34_SE REUNION_R34_SW REUNION_R34_NW REUNION_R50_NE REUNION_R50_SE REUNION_R50_SW REUNION_R50_NW REUNION_R64_NE REUNION_R64_SE REUNION_R64_SW REUNION_R64_NW BOM_LAT BOM_LON BOM_TYPE BOM_WIND BOM_PRES BOM_TNUM BOM_CI BOM_RMW BOM_R34_NE BOM_R34_SE BOM_R34_SW BOM_R34_NW BOM_R50_NE BOM_R50_SE BOM_R50_SW BOM_R50_NW BOM_R64_NE BOM_R64_SE BOM_R64_SW BOM_R64_NW BOM_ROCI BOM_POCI BOM_EYE BOM_POS_METHOD BOM_PRES_METHOD NADI_LAT NADI_LON NADI_CAT NADI_WIND NADI_PRES WELLINGTON_LAT WELLINGTON_LON WELLINGTON_WIND WELLINGTON_PRES DS824_LAT DS824_LON DS824_STAGE DS824_WIND DS824_PRES TD9636_LAT TD9636_LON TD9636_STAGE TD9636_WIND TD9636_PRES TD9635_LAT TD9635_LON TD9635_WIND TD9635_PRES TD9635_ROCI NEUMANN_LAT NEUMANN_LON NEUMANN_CLASS NEUMANN_WIND NEUMANN_PRES MLC_LAT MLC_LON MLC_CLASS MLC_WIND MLC_PRES USA_GUST BOM_GUST BOM_GUST_PER REUNION_GUST REUNION_GUST_PER USA_SEAHGT USA_SEARAD_NE USA_SEARAD_SE USA_SEARAD_SW USA_SEARAD_NW STORM_SPEED STORM_DIR
1974246N10341 1974 96 NA NA NOT_NAMED 1974-09-02 12:00:00 TS 10.0000 -19.0000 20 hurdat_atl main 360 360 O_____________ hurdat_atl AL111974 10.0000 -19.0000 TD 20 -1 22 273
1974246N10341 1974 96 NA NA NOT_NAMED 1974-09-02 15:00:00 TS 10.0509 -20.1249 main 442 442 P_____________ AL111974 10.0509 -20.1249 TD 22 -1 22 273
1974246N10341 1974 96 NA NA NOT_NAMED 1974-09-02 18:00:00 TS 10.1000 -21.2000 25 hurdat_atl main 544 544 O_____________ hurdat_atl AL111974 10.1000 -21.2000 TD 25 -1 20 273
1974246N10341 1974 96 NA NA NOT_NAMED 1974-09-02 21:00:00 TS 10.1494 -22.2000 main 643 643 P_____________ AL111974 10.1494 -22.2000 TD 25 -1 20 273
1974246N10341 1974 96 NA NA NOT_NAMED 1974-09-03 00:00:00 TS 10.2000 -23.2000 25 hurdat_atl main 740 740 O_____________ hurdat_atl AL111974 10.2000 -23.2000 TD 25 -1 21 273
1974246N10341 1974 96 NA NA NOT_NAMED 1974-09-03 03:00:00 TS 10.2424 -24.2926 main 854 854 P_____________ AL111974 10.2424 -24.2926 TD 25 -1 22 273
1974246N10341 1974 96 NA NA NOT_NAMED 1974-09-03 06:00:00 TS 10.3000 -25.4000 25 hurdat_atl main 967 967 O_____________ hurdat_atl AL111974 10.3000 -25.4000 TD 25 -1 22 274
1974246N10341 1974 96 NA NA NOT_NAMED 1974-09-03 09:00:00 TS 10.3922 -26.4724 main 1081 1081 P_____________ AL111974 10.3922 -26.4724 TD 27 -1 21 276
1974246N10341 1974 96 NA NA NOT_NAMED 1974-09-03 12:00:00 TS 10.5000 -27.5000 30 hurdat_atl main 1183 1183 O_____________ hurdat_atl AL111974 10.5000 -27.5000 TD 30 -1 20 276
1974246N10341 1974 96 NA NA NOT_NAMED 1974-09-03 15:00:00 TS 10.5921 -28.4651 main 1279 1279 P_____________ AL111974 10.5921 -28.4651 TD 30 -1 19 276
1974246N10341 1974 96 NA NA NOT_NAMED 1974-09-03 18:00:00 TS 10.7000 -29.4000 30 hurdat_atl main 1366 1366 O_____________ hurdat_atl AL111974 10.7000 -29.4000 TD 30 -1 19 278
1974246N10341 1974 96 NA NA NOT_NAMED 1974-09-03 21:00:00 TS 10.8423 -30.3575 main 1466 1462 P_____________ AL111974 10.8423 -30.3575 TD 30 -1 19 279
1974246N10341 1974 96 NA NA NOT_NAMED 1974-09-04 00:00:00 TS 11.0000 -31.3000 30 hurdat_atl main 1552 1552 O_____________ hurdat_atl AL111974 11.0000 -31.3000 TD 30 -1 18 280
1974246N10341 1974 96 NA NA NOT_NAMED 1974-09-04 03:00:00 TS 11.1571 -32.2000 main 1640 1640 P_____________ AL111974 11.1571 -32.2000 TD 30 -1 18 280
1974246N10341 1974 96 NA NA NOT_NAMED 1974-09-04 06:00:00 TS 11.3000 -33.1000 30 hurdat_atl main 1732 1726 O_____________ hurdat_atl AL111974 11.3000 -33.1000 TD 30 -1 18 278
1974246N10341 1974 96 NA NA NOT_NAMED 1974-09-04 09:00:00 TS 11.3996 -34.0278 main 1726 1702 P_____________ AL111974 11.3996 -34.0278 TD 30 -1 19 276
1974246N10341 1974 96 NA NA NOT_NAMED 1974-09-04 12:00:00 TS 11.5000 -35.0000 30 hurdat_atl main 1698 1678 O_____________ hurdat_atl AL111974 11.5000 -35.0000 TD 30 -1 20 277
1974246N10341 1974 96 NA NA NOT_NAMED 1974-09-04 15:00:00 TS 11.6348 -36.0351 main 1678 1671 P_____________ AL111974 11.6348 -36.0351 TD 30 -1 21 278
1974246N10341 1974 96 NA NA NOT_NAMED 1974-09-04 18:00:00 TS 11.8000 -37.1000 30 hurdat_atl main 1673 1670 O_____________ hurdat_atl AL111974 11.8000 -37.1000 TD 30 -1 21 280
1974246N10341 1974 96 NA NA NOT_NAMED 1974-09-04 21:00:00 TS 11.9919 -38.1351 main 1680 1608 P_____________ AL111974 11.9919 -38.1351 TD 30 -1 21 281
1974246N10341 1974 96 NA NA NOT_NAMED 1974-09-05 00:00:00 TS 12.2000 -39.2000 30 hurdat_atl main 1598 1512 O_____________ hurdat_atl AL111974 12.2000 -39.2000 TD 30 -1 22 281
1974246N10341 1974 96 NA NA NOT_NAMED 1974-09-05 03:00:00 TS 12.4000 -40.3576 main 1503 1431 P_____________ AL111974 12.4000 -40.3576 TD 30 -1 23 280
1974246N10341 1974 96 NA NA NOT_NAMED 1974-09-05 06:00:00 TS 12.6000 -41.5000 30 hurdat_atl main 1423 1357 O_____________ hurdat_atl AL111974 12.6000 -41.5000 TD 30 -1 22 281
1974246N10341 1974 96 NA NA NOT_NAMED 1974-09-05 09:00:00 TS 12.7919 -42.5228 main 1357 1305 P_____________ AL111974 12.7919 -42.5228 TD 30 -1 20 282
1974246N10341 1974 96 NA NA NOT_NAMED 1974-09-05 12:00:00 TS 13.0000 -43.5000 30 hurdat_atl main 1297 1252 O_____________ hurdat_atl AL111974 13.0000 -43.5000 TD 30 -1 20 283
1974246N10341 1974 96 NA NA NOT_NAMED 1974-09-05 15:00:00 TS 13.2421 -44.5001 main 1245 1213 P_____________ AL111974 13.2421 -44.5001 TD 30 -1 20 284
1974246N10341 1974 96 NA NA NOT_NAMED 1974-09-05 18:00:00 TS 13.5000 -45.5000 30 hurdat_atl main 1211 1169 O_____________ hurdat_atl AL111974 13.5000 -45.5000 TD 30 -1 20 285
1974246N10341 1974 96 NA NA NOT_NAMED 1974-09-05 21:00:00 TS 13.7496 -46.5002 main 1163 1134 P_____________ AL111974 13.7496 -46.5002 TD 30 -1 20 284
1974246N10341 1974 96 NA NA NOT_NAMED 1974-09-06 00:00:00 TS 14.0000 -47.5000 30 hurdat_atl main 1133 1107 O_____________ hurdat_atl AL111974 14.0000 -47.5000 TD 30 -1 20 284
1974246N10341 1974 96 NA NA NOT_NAMED 1974-09-06 03:00:00 TS 14.2496 -48.5002 main 1102 1088 P_____________ AL111974 14.2496 -48.5002 TD 30 -1 20 284
1974246N10341 1974 96 NA NA NOT_NAMED 1974-09-06 06:00:00 TS 14.5000 -49.5000 30 hurdat_atl main 1091 1065 O_____________ hurdat_atl AL111974 14.5000 -49.5000 TD 30 -1 21 284
1974246N10341 1974 96 NA NA NOT_NAMED 1974-09-06 09:00:00 TS 14.7503 -50.5674 main 1071 1056 P_____________ AL111974 14.7503 -50.5674 TD 30 -1 20 284
1974246N10341 1974 96 NA NA NOT_NAMED 1974-09-06 12:00:00 TS 15.0000 -51.5000 30 hurdat_atl main 1061 1058 O_____________ hurdat_atl AL111974 15.0000 -51.5000 TD 30 -1 16 289
1974246N10341 1974 96 NA NA NOT_NAMED 1974-09-06 15:00:00 TS 15.2492 -52.1103 main 1066 1056 P_____________ AL111974 15.2492 -52.1103 TD 30 -1 12 295
1974246N10341 1974 96 NA NA NOT_NAMED 1974-09-06 18:00:00 TS 15.5000 -52.6000 30 hurdat_atl main 1056 1013 O_____________ hurdat_atl AL111974 15.5000 -52.6000 TD 30 -1 12 296
1974246N10341 1974 96 NA NA NOT_NAMED 1974-09-06 21:00:00 TS 15.7500 -53.2001 main 1013 979 P_____________ AL111974 15.7500 -53.2001 TD 30 -1 13 293
1974246N10341 1974 96 NA NA NOT_NAMED 1974-09-07 00:00:00 TS 16.0000 -53.8000 30 hurdat_atl main 979 950 O_____________ hurdat_atl AL111974 16.0000 -53.8000 TD 30 -1 12 294
1974246N10341 1974 96 NA NA NOT_NAMED 1974-09-07 03:00:00 TS 16.2498 -54.3577 main 942 925 P_____________ AL111974 16.2498 -54.3577 TD 30 -1 12 295
1974246N10341 1974 96 NA NA NOT_NAMED 1974-09-07 06:00:00 TS 16.5000 -54.9000 30 hurdat_atl main 925 904 O_____________ hurdat_atl AL111974 16.5000 -54.9000 TD 30 -1 12 296
1974246N10341 1974 96 NA NA NOT_NAMED 1974-09-07 09:00:00 TS 16.7724 -55.4574 main 905 886 P_____________ AL111974 16.7724 -55.4574 TD 30 -1 12 295
1974246N10341 1974 96 NA NA NOT_NAMED 1974-09-07 12:00:00 TS 17.0000 -56.0000 30 hurdat_atl main 888 865 O_____________ hurdat_atl AL111974 17.0000 -56.0000 TD 30 -1 11 289
1974246N10341 1974 96 NA NA NOT_NAMED 1974-09-07 15:00:00 TS 17.1148 -56.5078 main 865 846 P_____________ AL111974 17.1148 -56.5078 TD 30 -1 10 282
1974246N10341 1974 96 NA NA NOT_NAMED 1974-09-07 18:00:00 TS 17.2000 -57.0000 30 hurdat_atl main 846 829 O_____________ hurdat_atl AL111974 17.2000 -57.0000 TD 30 -1 10 283
1974246N10341 1974 96 NA NA NOT_NAMED 1974-09-07 21:00:00 TS 17.3424 -57.5000 main 829 808 P_____________ AL111974 17.3424 -57.5000 TD 30 -1 10 287
1974246N10341 1974 96 NA NA NOT_NAMED 1974-09-08 00:00:00 TS 17.5000 -58.0000 30 hurdat_atl main 808 754 O_____________ hurdat_atl AL111974 17.5000 -58.0000 TD 30 -1 10 288
1974246N10341 1974 96 NA NA NOT_NAMED 1974-09-08 03:00:00 TS 17.6574 -58.5000 main 753 699 P_____________ AL111974 17.6574 -58.5000 TD 30 -1 10 287
1974246N10341 1974 96 NA NA NOT_NAMED 1974-09-08 06:00:00 TS 17.8000 -59.0000 30 hurdat_atl main 699 645 O_____________ hurdat_atl AL111974 17.8000 -59.0000 TD 30 -1 10 285
1974246N10341 1974 96 NA NA NOT_NAMED 1974-09-08 09:00:00 TS 17.9074 -59.5076 main 645 592 P_____________ AL111974 17.9074 -59.5076 TD 30 -1 10 282
1974246N10341 1974 96 NA NA NOT_NAMED 1974-09-08 12:00:00 TS 18.0000 -60.0000 30 hurdat_atl main 592 549 O_____________ hurdat_atl AL111974 18.0000 -60.0000 TD 30 -1 9 282
1974246N10341 1974 96 NA NA NOT_NAMED 1974-09-08 15:00:00 TS 18.0923 -60.4576 main 539 496 P_____________ AL111974 18.0923 -60.4576 TD 30 -1 9 283
1974246N10341 1974 96 NA NA NOT_NAMED 1974-09-08 18:00:00 TS 18.2000 -60.9000 30 hurdat_atl main 496 453 O_____________ hurdat_atl AL111974 18.2000 -60.9000 TD 30 -1 9 286
1974246N10341 1974 96 NA NA NOT_NAMED 1974-09-08 21:00:00 TS 18.3424 -61.3575 main 443 401 P_____________ AL111974 18.3424 -61.3575 TD 30 -1 9 289
1974246N10341 1974 96 NA NA NOT_NAMED 1974-09-09 00:00:00 TS 18.5000 -61.8000 30 hurdat_atl main 401 359 O_____________ hurdat_atl AL111974 18.5000 -61.8000 TD 30 -1 9 292
1974246N10341 1974 96 NA NA NOT_NAMED 1974-09-09 03:00:00 TS 18.6573 -62.2001 main 360 319 P_____________ AL111974 18.6573 -62.2001 TD 30 -1 8 292
1974246N10341 1974 96 NA NA NOT_NAMED 1974-09-09 06:00:00 TS 18.8000 -62.6000 30 hurdat_atl main 319 279 O_____________ hurdat_atl AL111974 18.8000 -62.6000 TD 30 -1 8 287
1974246N10341 1974 96 NA NA NOT_NAMED 1974-09-09 09:00:00 TS 18.8923 -63.0203 main 279 231 P_____________ AL111974 18.8923 -63.0203 TD 30 -1 9 283
1974246N10341 1974 96 NA NA NOT_NAMED 1974-09-09 12:00:00 TS 19.0000 -63.5000 30 hurdat_atl main 231 190 O_____________ hurdat_atl AL111974 19.0000 -63.5000 TD 30 -1 10 286
1974246N10341 1974 96 NA NA NOT_NAMED 1974-09-09 15:00:00 TS 19.1849 -64.0700 main 181 146 P_____________ AL111974 19.1849 -64.0700 TD 30 -1 12 289
1974246N10341 1974 96 NA NA NOT_NAMED 1974-09-09 18:00:00 TS 19.4000 -64.7000 30 hurdat_atl main 146 133 O_____________ hurdat_atl AL111974 19.4000 -64.7000 TD 30 -1 13 289
1974246N10341 1974 96 NA NA NOT_NAMED 1974-09-09 21:00:00 TS 19.6073 -65.3425 main 137 134 P_____________ AL111974 19.6073 -65.3425 TD 30 -1 13 288
1974246N10341 1974 96 NA NA NOT_NAMED 1974-09-10 00:00:00 TS 19.8000 -66.0000 30 hurdat_atl main 156 156 O_____________ hurdat_atl AL111974 19.8000 -66.0000 TD 30 -1 13 285
1974246N10341 1974 96 NA NA NOT_NAMED 1974-09-10 03:00:00 TS 19.9498 -66.6578 main 167 167 P_____________ AL111974 19.9498 -66.6578 TD 27 -1 13 284
1974246N10341 1974 96 NA NA NOT_NAMED 1974-09-10 06:00:00 TS 20.1000 -67.3000 25 hurdat_atl main 190 182 O_____________ hurdat_atl AL111974 20.1000 -67.3000 TD 25 -1 13 287
1974246N10341 1974 96 NA NA NOT_NAMED 1974-09-10 09:00:00 TS 20.3150 -67.9373 main 182 158 P_____________ AL111974 20.3150 -67.9373 TD 25 -1 12 290
1974246N10341 1974 96 NA NA NOT_NAMED 1974-09-10 12:00:00 TS 20.5000 -68.5000 25 hurdat_atl main 158 148 O_____________ hurdat_atl AL111974 20.5000 -68.5000 TD 25 -1 10 286
1974246N10341 1974 96 NA NA NOT_NAMED 1974-09-10 15:00:00 TS 20.5721 -68.9228 main 151 133 P_____________ AL111974 20.5721 -68.9228 TD 25 -1 8 278
1974246N10341 1974 96 NA NA NOT_NAMED 1974-09-10 18:00:00 TS 20.6000 -69.3000 25 hurdat_atl main 133 116 O_____________ hurdat_atl AL111974 20.6000 -69.3000 TD 25 -1 7 276
1974246N10341 1974 96 NA NA NOT_NAMED 1974-09-10 21:00:00 TS 20.6496 -69.7051 main 116 108 P_____________ AL111974 20.6496 -69.7051 TD 25 -1 8 277
1974246N10341 1974 96 NA NA NOT_NAMED 1974-09-11 00:00:00 TS 20.7000 -70.2000 25 hurdat_atl main 108 100 O_____________ hurdat_atl AL111974 20.7000 -70.2000 TD 25 -1 11 275
1974246N10341 1974 96 NA NA NOT_NAMED 1974-09-11 03:00:00 TS 20.7426 -70.8626 main 100 100 P_____________ AL111974 20.7426 -70.8626 TD 22 -1 13 274
1974246N10341 1974 96 NA NA NOT_NAMED 1974-09-11 06:00:00 TS 20.8000 -71.6000 20 hurdat_atl main 111 80 O_____________ hurdat_atl AL111974 20.8000 -71.6000 TD 20 -1 14 276
1974246N10341 1974 96 NA NA NOT_NAMED 1974-09-11 09:00:00 TS 20.8903 -72.3122 main 80 10 P_____________ AL111974 20.8903 -72.3122 TD 20 -1 13 279
1974246N10341 1974 96 NA NA NOT_NAMED 1974-09-11 12:00:00 TS 21.0000 -73.0000 20 hurdat_atl main 10 O_____________ hurdat_atl AL111974 21.0000 -73.0000 TD 20 -1 13 280

About IBTrACS Database

This database is a web-friendly format of International Best Track Archive for Climate Stewardship (IBTrACS), a global best track data archive curated by NOAA dating back to 1842.

Updated: 2021-11-26